createdAt,value
2019-04-01T00:02:03.120Z,99.90
2019-04-01T00:04:35.564Z,99.90
2019-04-01T00:07:08.141Z,99.90
2019-04-01T00:09:40.555Z,99.90
2019-04-01T00:12:13.365Z,99.90
2019-04-01T00:14:45.799Z,99.90
2019-04-01T00:17:18.513Z,99.90
2019-04-01T00:19:50.620Z,99.90
2019-04-01T00:22:23.283Z,99.90
2019-04-01T00:24:55.479Z,99.90
2019-04-01T00:27:28.215Z,99.90
2019-04-01T00:30:00.727Z,99.90
2019-04-01T00:32:33.334Z,99.90
2019-04-01T00:35:07.200Z,99.90
2019-04-01T00:37:39.723Z,99.90
2019-04-01T00:40:14.048Z,99.90
2019-04-01T00:42:48.329Z,99.90
2019-04-01T00:45:22.332Z,99.90
2019-04-01T00:47:55.418Z,99.90
2019-04-01T00:50:28.145Z,99.90
2019-04-01T00:53:00.483Z,99.90
2019-04-01T00:55:33.103Z,99.90
2019-04-01T00:58:05.938Z,99.90
2019-04-01T01:00:38.615Z,99.90
2019-04-01T01:03:11.087Z,99.90
2019-04-01T01:05:43.487Z,99.90
2019-04-01T01:08:16.087Z,99.90
2019-04-01T01:10:48.512Z,99.90
2019-04-01T01:13:20.951Z,99.90
2019-04-01T01:15:53.623Z,99.90
2019-04-01T01:18:25.979Z,99.90
2019-04-01T01:20:58.389Z,99.90
2019-04-01T01:23:31.064Z,99.90
2019-04-01T01:26:04.026Z,99.90
2019-04-01T01:28:36.337Z,99.90
2019-04-01T01:31:09.748Z,99.90
2019-04-01T01:33:42.476Z,99.90
2019-04-01T01:36:14.800Z,99.90
2019-04-01T01:38:48.292Z,99.90
2019-04-01T01:41:20.695Z,99.90
2019-04-01T01:43:52.844Z,99.90
2019-04-01T01:46:25.263Z,99.90
2019-04-01T01:48:57.626Z,99.90
2019-04-01T01:51:30.603Z,99.90
2019-04-01T01:54:03.104Z,99.90
2019-04-01T01:56:35.461Z,99.90
2019-04-01T01:59:07.921Z,99.90
2019-04-01T02:01:40.266Z,99.90
2019-04-01T02:04:12.735Z,99.90
2019-04-01T02:06:45.045Z,99.90
2019-04-01T02:09:17.780Z,99.90
2019-04-01T02:11:50.011Z,99.90
2019-04-01T02:14:22.449Z,99.90
2019-04-01T02:16:54.856Z,99.90
2019-04-01T02:19:27.510Z,99.90
2019-04-01T02:22:00.273Z,99.90
2019-04-01T02:24:32.789Z,99.90
2019-04-01T02:27:05.316Z,99.90
2019-04-01T02:29:37.732Z,99.90
2019-04-01T02:32:10.680Z,99.90
2019-04-01T02:34:43.287Z,99.90
2019-04-01T02:37:15.829Z,99.90
2019-04-01T02:39:48.258Z,99.90
2019-04-01T02:42:20.913Z,99.90
2019-04-01T02:44:53.451Z,99.90
2019-04-01T02:47:25.872Z,99.90
2019-04-01T02:49:58.747Z,99.90
2019-04-01T02:52:31.262Z,99.90
2019-04-01T02:55:06.790Z,99.90
2019-04-01T02:57:38.570Z,99.90
2019-04-01T03:00:11.435Z,99.90
2019-04-01T03:02:43.665Z,99.90
2019-04-01T03:05:16.401Z,99.90
2019-04-01T03:07:48.718Z,99.90
2019-04-01T03:10:21.613Z,99.90
2019-04-01T03:12:53.823Z,99.90
2019-04-01T03:15:26.240Z,99.90
2019-04-01T03:17:58.568Z,99.90
2019-04-01T03:20:30.994Z,99.90
2019-04-01T03:23:03.718Z,99.90
2019-04-01T03:25:36.378Z,99.90
2019-04-01T03:28:08.823Z,99.90
2019-04-01T03:30:41.360Z,99.90
2019-04-01T03:33:13.678Z,99.90
2019-04-01T03:35:46.739Z,99.90
2019-04-01T03:38:19.158Z,99.90
2019-04-01T03:40:51.831Z,99.90
2019-04-01T03:43:24.269Z,99.90
2019-04-01T03:45:56.787Z,99.90
2019-04-01T03:48:29.214Z,99.70
2019-04-01T03:51:02.516Z,99.90
2019-04-01T03:53:34.949Z,99.50
2019-04-01T03:56:07.283Z,99.90
2019-04-01T03:58:39.904Z,99.90
2019-04-01T04:01:12.452Z,99.00
2019-04-01T04:03:45.097Z,98.50
2019-04-01T04:06:17.737Z,98.50
2019-04-01T04:08:50.367Z,98.40
2019-04-01T04:11:22.895Z,97.80
2019-04-01T04:13:55.461Z,97.10
2019-04-01T04:16:28.113Z,97.00
2019-04-01T04:19:00.525Z,97.80
2019-04-01T04:21:33.105Z,98.30
2019-04-01T04:24:05.526Z,96.70
2019-04-01T04:26:38.403Z,96.30
2019-04-01T04:29:10.709Z,96.70
2019-04-01T04:31:43.412Z,96.50
2019-04-01T04:34:16.175Z,96.80
2019-04-01T04:36:48.708Z,95.90
2019-04-01T04:39:21.138Z,95.40
2019-04-01T04:41:53.347Z,95.00
2019-04-01T04:44:25.846Z,95.30
2019-04-01T04:46:58.440Z,95.60
2019-04-01T04:49:31.094Z,96.50
2019-04-01T04:52:04.746Z,95.80
2019-04-01T04:54:37.582Z,95.60
2019-04-01T04:57:10.333Z,96.50
2019-04-01T04:59:42.783Z,97.10
2019-04-01T05:02:15.055Z,97.00
2019-04-01T05:04:48.372Z,97.30
2019-04-01T05:07:20.729Z,96.30
2019-04-01T05:09:53.073Z,96.10
2019-04-01T05:12:25.713Z,96.50
2019-04-01T05:14:58.400Z,95.50
2019-04-01T05:17:30.842Z,95.20
2019-04-01T05:20:03.271Z,96.20
2019-04-01T05:22:36.899Z,96.50
2019-04-01T05:25:09.355Z,96.50
2019-04-01T05:27:43.706Z,96.60
2019-04-01T05:30:16.314Z,96.30
2019-04-01T05:32:51.089Z,96.20
2019-04-01T05:35:24.035Z,96.30
2019-04-01T05:37:57.089Z,95.60
2019-04-01T05:40:29.503Z,95.50
2019-04-01T05:43:02.340Z,95.60
2019-04-01T05:45:34.851Z,96.80
2019-04-01T05:48:07.497Z,97.00
2019-04-01T05:50:39.932Z,96.20
2019-04-01T05:53:12.553Z,96.20
2019-04-01T05:55:44.963Z,94.40
2019-04-01T05:58:17.795Z,95.10
2019-04-01T06:00:51.596Z,94.80
2019-04-01T06:03:24.795Z,94.10
2019-04-01T06:05:57.644Z,93.80
2019-04-01T06:08:30.275Z,93.80
2019-04-01T06:11:03.023Z,94.30
2019-04-01T06:13:35.736Z,94.40
2019-04-01T06:16:08.408Z,94.50
2019-04-01T06:18:40.816Z,94.80
2019-04-01T06:21:13.623Z,94.50
2019-04-01T06:23:46.169Z,93.30
2019-04-01T06:26:18.639Z,93.20
2019-04-01T06:28:51.759Z,92.70
2019-04-01T06:31:24.311Z,93.20
2019-04-01T06:33:56.725Z,93.90
2019-04-01T06:36:29.075Z,93.50
2019-04-01T06:39:01.716Z,93.80
2019-04-01T06:41:34.844Z,93.70
2019-04-01T06:44:08.088Z,95.30
2019-04-01T06:46:40.427Z,94.90
2019-04-01T06:49:13.036Z,95.00
2019-04-01T06:51:45.355Z,94.70
2019-04-01T06:54:18.256Z,94.80
2019-04-01T06:56:50.357Z,95.00
2019-04-01T06:59:23.601Z,94.10
2019-04-01T07:01:56.052Z,93.40
2019-04-01T07:04:28.759Z,93.50
2019-04-01T07:07:01.059Z,93.80
2019-04-01T07:09:33.403Z,92.30
2019-04-01T07:12:06.008Z,92.50
2019-04-01T07:14:38.855Z,92.10
2019-04-01T07:17:11.705Z,92.90
2019-04-01T07:19:44.356Z,93.10
2019-04-01T07:22:16.660Z,93.60
2019-04-01T07:24:50.307Z,93.10
2019-04-01T07:27:23.316Z,93.20
2019-04-01T07:29:55.840Z,93.70
2019-04-01T07:32:28.257Z,92.50
2019-04-01T07:35:00.910Z,91.40
2019-04-01T07:37:33.524Z,91.40
2019-04-01T07:40:07.522Z,91.70
2019-04-01T07:42:39.832Z,91.20
2019-04-01T07:45:12.675Z,90.60
2019-04-01T07:47:45.398Z,91.90
2019-04-01T07:50:18.565Z,90.20
2019-04-01T07:52:55.174Z,90.50
2019-04-01T07:55:25.558Z,90.90
2019-04-01T07:57:59.735Z,89.80
2019-04-01T08:00:31.601Z,91.10
2019-04-01T08:03:04.003Z,91.60
2019-04-01T08:05:36.936Z,90.00
2019-04-01T08:08:09.876Z,88.70
2019-04-01T08:10:42.307Z,89.90
2019-04-01T08:13:14.817Z,90.10
2019-04-01T08:15:47.675Z,90.10
2019-04-01T08:18:21.284Z,90.40
2019-04-01T08:20:53.875Z,90.40
2019-04-01T08:23:26.486Z,90.80
2019-04-01T08:25:59.297Z,90.10
2019-04-01T08:28:31.635Z,90.50
2019-04-01T08:31:04.442Z,90.30
2019-04-01T08:33:36.746Z,91.10
2019-04-01T08:36:09.598Z,88.70
2019-04-01T08:38:41.991Z,90.00
2019-04-01T08:41:14.951Z,88.70
2019-04-01T08:43:47.377Z,89.00
2019-04-01T08:46:19.913Z,89.90
2019-04-01T08:48:52.012Z,87.70
2019-04-01T08:51:24.661Z,88.10
2019-04-01T08:53:56.982Z,89.80
2019-04-01T08:56:31.174Z,90.90
2019-04-01T08:59:04.347Z,89.20
2019-04-01T09:01:36.963Z,88.30
2019-04-01T09:04:09.571Z,87.80
2019-04-01T09:06:42.151Z,87.90
2019-04-01T09:09:14.586Z,88.20
2019-04-01T09:11:48.275Z,88.50
2019-04-01T09:14:21.238Z,89.90
2019-04-01T09:16:55.942Z,88.70
2019-04-01T09:19:28.985Z,88.20
2019-04-01T09:22:01.904Z,87.30
2019-04-01T09:24:34.325Z,90.10
2019-04-01T09:27:06.894Z,89.30
2019-04-01T09:29:39.188Z,88.60
2019-04-01T09:32:11.795Z,90.00
2019-04-01T09:34:44.320Z,89.50
2019-04-01T09:37:17.448Z,90.10
2019-04-01T09:39:49.868Z,89.70
2019-04-01T09:42:22.495Z,89.80
2019-04-01T09:44:55.107Z,90.20
2019-04-01T09:47:27.642Z,90.10
2019-04-01T09:50:00.388Z,89.80
2019-04-01T09:52:32.905Z,90.10
2019-04-01T09:55:06.376Z,90.20
2019-04-01T09:57:39.079Z,90.40
2019-04-01T10:00:13.572Z,90.20
2019-04-01T10:02:46.238Z,91.20
2019-04-01T10:05:18.719Z,90.30
2019-04-01T10:07:51.453Z,90.30
2019-04-01T10:10:23.950Z,90.20
2019-04-01T10:12:56.981Z,90.20
2019-04-01T10:15:30.011Z,91.10
2019-04-01T10:18:02.415Z,91.20
2019-04-01T10:20:34.868Z,91.50
2019-04-01T10:23:07.379Z,90.80
2019-04-01T10:25:39.846Z,90.70
2019-04-01T10:28:12.151Z,90.60
2019-04-01T10:30:44.888Z,91.20
2019-04-01T10:33:17.341Z,91.70
2019-04-01T10:35:50.217Z,91.40
2019-04-01T10:38:22.584Z,92.50
2019-04-01T10:40:55.001Z,92.00
2019-04-01T10:43:27.506Z,92.10
2019-04-01T10:46:00.304Z,92.10
2019-04-01T10:48:33.139Z,92.40
2019-04-01T10:51:05.860Z,92.70
2019-04-01T10:53:38.275Z,92.60
2019-04-01T10:56:10.954Z,92.70
2019-04-01T10:58:43.856Z,93.20
2019-04-01T11:01:16.525Z,93.10
2019-04-01T11:03:48.986Z,93.40
2019-04-01T11:06:21.524Z,93.90
2019-04-01T11:08:54.286Z,93.90
2019-04-01T11:11:27.311Z,94.70
2019-04-01T11:14:00.147Z,94.50
2019-04-01T11:16:32.917Z,94.40
2019-04-01T11:19:05.550Z,94.10
2019-04-01T11:21:39.594Z,95.20
2019-04-01T11:24:12.103Z,94.40
2019-04-01T11:26:44.786Z,94.40
2019-04-01T11:29:17.761Z,94.80
2019-04-01T11:31:50.099Z,94.60
2019-04-01T11:34:22.585Z,94.80
2019-04-01T11:36:54.790Z,95.00
2019-04-01T11:39:27.126Z,94.90
2019-04-01T11:42:01.380Z,95.50
2019-04-01T11:44:33.092Z,96.00
2019-04-01T11:47:06.034Z,97.00
2019-04-01T11:49:39.433Z,97.30
2019-04-01T11:52:15.395Z,96.60
2019-04-01T11:54:45.903Z,97.30
2019-04-01T11:57:18.365Z,97.60
2019-04-01T11:59:50.685Z,97.60
2019-04-01T12:02:23.511Z,98.00
2019-04-01T12:04:56.245Z,98.30
2019-04-01T12:07:28.928Z,98.90
2019-04-01T12:10:01.597Z,98.60
2019-04-01T12:12:35.204Z,99.10
2019-04-01T12:15:11.688Z,98.80
2019-04-01T12:17:42.908Z,99.80
2019-04-01T12:20:15.599Z,99.90
2019-04-01T12:22:48.202Z,99.90
2019-04-01T12:25:20.533Z,99.90
2019-04-01T12:27:52.844Z,99.90
2019-04-01T12:30:25.147Z,99.90
2019-04-01T12:32:57.571Z,99.90
2019-04-01T12:35:30.091Z,99.90
2019-04-01T12:38:02.749Z,99.90
2019-04-01T12:40:35.064Z,99.90
2019-04-01T12:43:07.796Z,99.90
2019-04-01T12:45:40.329Z,99.90
2019-04-01T12:48:13.090Z,99.90
2019-04-01T12:50:45.395Z,99.90
2019-04-01T12:53:17.941Z,99.90
2019-04-01T12:55:50.195Z,99.90
2019-04-01T12:58:25.175Z,99.90
2019-04-01T13:01:00.757Z,99.90
2019-04-01T13:03:30.816Z,99.90
2019-04-01T13:06:03.455Z,99.90
2019-04-01T13:08:35.818Z,99.90
2019-04-01T13:11:08.534Z,99.90
2019-04-01T13:13:41.046Z,99.90
2019-04-01T13:16:13.841Z,99.90
2019-04-01T13:18:47.629Z,99.90
2019-04-01T13:21:22.185Z,99.90
2019-04-01T13:23:54.344Z,99.90
2019-04-01T13:26:26.686Z,99.90
2019-04-01T13:28:58.911Z,99.90
2019-04-01T13:31:31.613Z,99.90
2019-04-01T13:34:04.298Z,99.90
2019-04-01T13:36:36.868Z,99.90
2019-04-01T13:39:10.602Z,99.90
2019-04-01T13:41:43.457Z,99.90
2019-04-01T13:44:15.936Z,99.90
2019-04-01T13:46:48.804Z,99.90
2019-04-01T13:49:21.819Z,99.90
2019-04-01T13:51:54.039Z,99.90
2019-04-01T13:54:26.801Z,99.90
2019-04-01T13:56:59.288Z,99.90
2019-04-01T13:59:32.049Z,99.90
2019-04-01T14:02:04.489Z,99.90
2019-04-01T14:04:36.900Z,99.90
2019-04-01T14:07:09.312Z,99.90
2019-04-01T14:09:41.760Z,99.90
2019-04-01T14:12:14.168Z,99.90
2019-04-01T14:14:46.296Z,99.90
2019-04-01T14:17:18.635Z,99.90
2019-04-01T14:19:50.953Z,99.90
2019-04-01T14:22:23.613Z,99.90
2019-04-01T14:24:55.732Z,99.90
2019-04-01T14:27:28.320Z,99.90
2019-04-01T14:30:01.659Z,99.90
2019-04-01T14:32:34.474Z,99.90
2019-04-01T14:35:08.454Z,99.90
2019-04-01T14:37:40.919Z,99.90
2019-04-01T14:40:13.989Z,99.90
2019-04-01T14:42:47.078Z,99.90
2019-04-01T14:45:19.723Z,99.90
2019-04-01T14:47:57.403Z,99.90
2019-04-01T14:50:25.828Z,99.90
2019-04-01T14:52:58.271Z,99.90
2019-04-01T14:55:31.116Z,99.90
2019-04-01T14:58:03.876Z,99.90
2019-04-01T15:00:36.176Z,99.90
2019-04-01T15:03:08.853Z,99.90
2019-04-01T15:05:41.268Z,99.90
2019-04-01T15:08:14.392Z,99.90
2019-04-01T15:10:48.005Z,99.90
2019-04-01T15:13:20.643Z,99.90
2019-04-01T15:15:52.966Z,99.90
2019-04-01T15:18:25.971Z,99.90
2019-04-01T15:20:59.495Z,99.90
2019-04-01T15:23:31.903Z,99.90
2019-04-01T15:26:04.386Z,99.90
2019-04-01T15:28:36.813Z,99.90
2019-04-01T15:31:09.125Z,99.90
2019-04-01T15:33:41.555Z,99.90
2019-04-01T15:36:13.981Z,99.90
2019-04-01T15:38:46.611Z,99.90
2019-04-01T15:41:18.953Z,99.90
2019-04-01T15:43:52.918Z,99.90
2019-04-01T15:46:25.329Z,99.90
2019-04-01T15:48:58.008Z,99.90
2019-04-01T15:51:30.628Z,99.90
2019-04-01T15:54:04.356Z,99.90
2019-04-01T15:56:36.875Z,99.90
2019-04-01T15:59:09.637Z,99.90
2019-04-01T16:01:42.948Z,99.90
2019-04-01T16:04:16.572Z,99.90
2019-04-01T16:06:48.951Z,99.90
2019-04-01T16:09:23.056Z,99.90
2019-04-01T16:11:55.217Z,99.90
2019-04-01T16:14:27.652Z,99.90
2019-04-01T16:17:00.055Z,99.90
2019-04-01T16:19:32.632Z,99.90
2019-04-01T16:22:06.053Z,99.90
2019-04-01T16:24:39.070Z,99.90
2019-04-01T16:27:11.626Z,99.90
2019-04-01T16:29:43.960Z,99.90
2019-04-01T16:32:17.972Z,99.90
2019-04-01T16:34:50.449Z,99.90
2019-04-01T16:37:23.034Z,99.90
2019-04-01T16:39:55.356Z,99.90
2019-04-01T16:42:27.974Z,99.90
2019-04-01T16:45:00.576Z,99.90
2019-04-01T16:47:33.122Z,99.90
2019-04-01T16:50:06.836Z,99.90
2019-04-01T16:52:39.308Z,99.90
2019-04-01T16:55:13.522Z,99.90
2019-04-01T16:57:47.019Z,99.90
2019-04-01T17:00:21.490Z,99.90
2019-04-01T17:02:54.882Z,99.90
2019-04-01T17:05:29.582Z,99.90
2019-04-01T17:08:02.604Z,99.90
2019-04-01T17:10:35.055Z,99.90
2019-04-01T17:13:09.722Z,99.90
2019-04-01T17:15:42.129Z,99.90
2019-04-01T17:18:14.844Z,99.90
2019-04-01T17:20:47.515Z,99.90
2019-04-01T17:23:19.992Z,99.90
2019-04-01T17:25:52.721Z,99.90
2019-04-01T17:28:25.157Z,99.90
2019-04-01T17:30:58.519Z,99.90
2019-04-01T17:33:31.269Z,99.90
2019-04-01T17:36:04.131Z,99.90
2019-04-01T17:38:36.660Z,99.90
2019-04-01T17:41:09.617Z,99.90
2019-04-01T17:43:42.041Z,99.90
2019-04-01T17:46:14.837Z,99.90
2019-04-01T17:48:47.688Z,99.90
2019-04-01T17:51:20.108Z,99.90
2019-04-01T17:53:52.542Z,99.90
2019-04-01T17:56:24.963Z,99.90
2019-04-01T17:58:57.183Z,99.90
2019-04-01T18:01:29.860Z,99.90
2019-04-01T18:04:02.815Z,99.90
2019-04-01T18:06:35.509Z,99.90
2019-04-01T18:09:09.801Z,99.90
2019-04-01T18:11:42.582Z,99.90
2019-04-01T18:14:15.159Z,99.90
2019-04-01T18:16:47.962Z,99.90
2019-04-01T18:19:20.327Z,99.90
2019-04-01T18:21:52.780Z,99.90
2019-04-01T18:24:25.420Z,99.90
2019-04-01T18:26:57.851Z,99.90
2019-04-01T18:29:30.421Z,99.90
2019-04-01T18:32:02.937Z,99.90
2019-04-01T18:34:36.640Z,99.90
2019-04-01T18:37:09.200Z,99.90
2019-04-01T18:39:48.000Z,99.90
2019-04-01T18:42:16.113Z,99.90
2019-04-01T18:44:48.635Z,99.90
2019-04-01T18:47:21.421Z,99.90
2019-04-01T18:49:53.594Z,99.90
2019-04-01T18:52:26.236Z,99.90
2019-04-01T18:54:58.536Z,99.90
2019-04-01T18:57:31.130Z,99.90
2019-04-01T19:00:03.432Z,99.90
2019-04-01T19:02:35.866Z,99.90
2019-04-01T19:05:10.024Z,99.90
2019-04-01T19:07:42.054Z,99.90
2019-04-01T19:10:14.724Z,99.90
2019-04-01T19:12:47.214Z,99.90
2019-04-01T19:15:19.729Z,99.90
2019-04-01T19:17:52.441Z,99.90
2019-04-01T19:20:24.969Z,99.90
2019-04-01T19:22:57.873Z,99.90
2019-04-01T19:25:30.333Z,99.90
2019-04-01T19:28:02.882Z,99.90
2019-04-01T19:30:35.399Z,99.90
2019-04-01T19:33:08.897Z,99.90
2019-04-01T19:35:41.647Z,99.90
2019-04-01T19:38:14.298Z,99.90
2019-04-01T19:40:46.609Z,99.90
2019-04-01T19:43:19.344Z,99.90
2019-04-01T19:45:51.676Z,99.90
2019-04-01T19:48:25.223Z,99.90
2019-04-01T19:50:59.066Z,99.90
2019-04-01T19:53:31.274Z,99.90
2019-04-01T19:56:03.585Z,99.90
2019-04-01T19:58:36.228Z,99.90
2019-04-01T20:01:08.625Z,99.90
2019-04-01T20:03:41.252Z,99.90
2019-04-01T20:06:13.904Z,99.90
2019-04-01T20:08:49.526Z,99.90
2019-04-01T20:11:20.244Z,99.90
2019-04-01T20:13:54.862Z,99.90
2019-04-01T20:16:26.333Z,99.90
2019-04-01T20:18:58.972Z,99.90
2019-04-01T20:21:31.424Z,99.90
2019-04-01T20:24:03.955Z,99.90
2019-04-01T20:26:36.640Z,99.90
2019-04-01T20:29:09.083Z,99.90
2019-04-01T20:31:41.732Z,99.90
2019-04-01T20:34:19.890Z,99.90
2019-04-01T20:36:48.383Z,99.90
2019-04-01T20:39:21.090Z,99.90
2019-04-01T20:41:53.250Z,99.90
2019-04-01T20:44:25.667Z,99.90
2019-04-01T20:46:58.165Z,99.90
2019-04-01T20:49:30.860Z,99.90
2019-04-01T20:52:03.203Z,99.90
2019-04-01T20:54:35.733Z,99.90
2019-04-01T20:57:08.358Z,99.90
2019-04-01T20:59:41.161Z,99.90
2019-04-01T21:02:14.152Z,99.90
2019-04-01T21:04:46.714Z,99.90
2019-04-01T21:07:19.011Z,99.90
2019-04-01T21:09:51.453Z,99.90
2019-04-01T21:12:23.971Z,99.90
2019-04-01T21:14:56.476Z,99.90
2019-04-01T21:17:28.779Z,99.90
2019-04-01T21:20:02.154Z,99.90
2019-04-01T21:22:36.547Z,99.90
2019-04-01T21:25:09.898Z,99.90
2019-04-01T21:27:43.540Z,99.90
2019-04-01T21:30:17.770Z,99.90
2019-04-01T21:32:50.209Z,99.90
2019-04-01T21:35:23.010Z,99.90
2019-04-01T21:37:55.139Z,99.90
2019-04-01T21:40:28.067Z,99.90
2019-04-01T21:43:03.161Z,99.90
2019-04-01T21:45:36.085Z,99.90
2019-04-01T21:48:10.370Z,99.90
2019-04-01T21:50:42.146Z,99.90
2019-04-01T21:53:14.520Z,99.90
2019-04-01T21:55:47.056Z,99.90
2019-04-01T21:58:20.038Z,99.90
2019-04-01T22:00:54.759Z,99.90
2019-04-01T22:03:28.311Z,99.90
2019-04-01T22:06:01.151Z,99.90
2019-04-01T22:08:33.828Z,99.90
2019-04-01T22:11:06.409Z,99.90
2019-04-01T22:13:38.717Z,99.90
2019-04-01T22:16:11.355Z,99.90
2019-04-01T22:18:43.766Z,99.90
2019-04-01T22:21:16.248Z,99.90
2019-04-01T22:23:48.636Z,99.90
2019-04-01T22:26:21.300Z,99.90
2019-04-01T22:28:53.424Z,99.90
2019-04-01T22:31:25.993Z,99.90
2019-04-01T22:33:59.402Z,99.90
2019-04-01T22:36:32.180Z,99.90
2019-04-01T22:39:05.994Z,99.90
2019-04-01T22:41:41.386Z,99.90
2019-04-01T22:44:12.731Z,99.90
2019-04-01T22:46:47.277Z,99.90
2019-04-01T22:49:19.118Z,99.90
2019-04-01T22:51:51.433Z,99.90
2019-04-01T22:54:24.160Z,99.90
2019-04-01T22:56:56.387Z,99.90
2019-04-01T22:59:28.778Z,99.90
2019-04-01T23:02:01.609Z,99.90
2019-04-01T23:04:36.748Z,99.90
2019-04-01T23:07:08.073Z,99.90
2019-04-01T23:09:40.504Z,99.90
2019-04-01T23:12:12.928Z,99.90
2019-04-01T23:14:46.248Z,99.90
2019-04-01T23:17:18.954Z,99.90
2019-04-01T23:19:51.655Z,99.90
2019-04-01T23:22:24.117Z,99.90
2019-04-01T23:24:57.376Z,99.90
2019-04-01T23:27:30.251Z,99.90
2019-04-01T23:30:02.651Z,99.90
2019-04-01T23:32:35.602Z,99.90
2019-04-01T23:35:09.403Z,99.90
2019-04-01T23:37:41.866Z,99.90
2019-04-01T23:40:14.724Z,99.90
2019-04-01T23:42:46.988Z,99.90
2019-04-01T23:45:20.958Z,99.90
2019-04-01T23:47:53.205Z,99.90
2019-04-01T23:50:26.245Z,99.90
2019-04-01T23:52:58.809Z,99.90
2019-04-01T23:55:31.443Z,99.90
2019-04-01T23:58:03.674Z,99.90
